Corpus Christi International Airport Corpus Christi US
ICAO: KCRP
IATA: CRP
Category: Large
Scheduled Services: Yes

Elevation: 44 ft
TransAlt. 18000 ft.

Airport Communications:
APP/DEP:120.9
ATIS:126.8
CLNC DEL:118.55
GND:121.9
SAN ANGELO RDO:122.65
TWR:119.4
UNICOM:122.95

KCRP Zoom In..

Runways:

(A) RW 13 length 7508 ft width 150 ft
ILS 110.30 / hdg 129

(B) RW 17 length 6080 ft width 150 ft
LOC 110.30 / hdg 172

(C) RW 31 length 7508 ft width 150 ft
LOC 110.30 / hdg 309

(D) RW 35 length 6080 ft width 150 ft
ILS 109.50 / hdg 352

Location; KCRP
Day. 21 / Time. 14.51 Zulu
* Altimeter: 29.96
* Temperature: 26° c. 78.8°f.
* Wind from: 360° Speed 05 kn.
Dewpoint: 20° c.
Visibility: 10 Statute Miles.
Clouds: Few 2300 ft.
Clouds: Broken 2800 ft.
Clouds: Broken 3400 ft.
Clouds: Broken 19000 ft.
Clouds: Overcast 25000 ft.
Conditions: Cumulonimbus.

KCRP 211451Z 36005KT 10SM FEW023 BKN028 BKN034 BKN190 OVC250 26/20 A2996 RMK AO2 SLP142 CB DSNT NE MOV N T02560200 53007


Wind From 360°
Speed 05 kn.

 
 
jpsmedia.com for Web Design SOUNDCLOUD worldairports.se 2018   terms of use